Time;durP1;ratioP1;P1;durP2;ratioP2;P2;SDS_P1;SDS_P2;PMS_P1;PMS_P2;Temp;Humidity;BMP_temperature;BMP_pressure;BME280_temperature;BME280_humidity;BME280_pressure;Samples;Min_cycle;Max_cycle;Signal;HPM_P1;HPM_P2
2023/08/12 00:01:10;;;;;;;10.20;6.43;;;17.60;99.90;;;;;;5206576;28;20030;-79
2023/08/12 00:03:48;;;;;;;7.45;6.50;;;17.50;99.90;;;;;;5210365;28;20381;-79
2023/08/12 00:06:28;;;;;;;6.80;6.20;;;17.50;99.90;;;;;;5210822;28;20025;-78
2023/08/12 00:09:03;;;;;;;7.65;6.85;;;17.40;99.90;;;;;;5206549;28;20057;-79
2023/08/12 00:11:43;;;;;;;8.82;7.55;;;17.30;99.90;;;;;;5205963;28;20033;-79
2023/08/12 00:14:17;;;;;;;7.50;6.85;;;17.30;99.90;;;;;;5195554;28;20045;-79
2023/08/12 00:16:52;;;;;;;7.47;6.88;;;17.40;99.90;;;;;;5204061;28;20077;-79
2023/08/12 00:19:29;;;;;;;7.03;6.43;;;17.50;99.90;;;;;;5210421;28;20028;-78
2023/08/12 00:22:09;;;;;;;8.52;7.72;;;17.30;99.90;;;;;;5210407;28;20102;-79
2023/08/12 00:24:49;;;;;;;8.38;7.65;;;17.20;99.90;;;;;;5210534;28;20083;-79
2023/08/12 00:27:30;;;;;;;9.40;7.85;;;17.40;99.90;;;;;;5210435;28;20041;-79
2023/08/12 00:30:05;;;;;;;7.80;7.30;;;17.20;99.90;;;;;;5210331;28;20017;-79
2023/08/12 00:32:40;;;;;;;8.73;7.85;;;17.10;99.90;;;;;;5210098;28;20373;-79
2023/08/12 00:35:14;;;;;;;9.50;7.18;;;16.90;99.90;;;;;;5202560;28;20033;-79
2023/08/12 00:37:47;;;;;;;10.38;7.13;;;16.90;99.90;;;;;;5209967;28;20021;-79
2023/08/12 00:40:21;;;;;;;6.97;6.47;;;16.90;99.90;;;;;;5192182;28;20033;-79
2023/08/12 00:42:55;;;;;;;6.78;6.20;;;16.90;99.90;;;;;;5210080;28;20014;-79
2023/08/12 00:45:30;;;;;;;8.05;7.40;;;17.00;99.90;;;;;;5188096;28;20450;-79
2023/08/12 00:48:05;;;;;;;8.05;7.10;;;16.90;99.90;;;;;;5187974;28;20080;-79
2023/08/12 00:50:44;;;;;;;7.45;6.85;;;16.90;99.90;;;;;;5188225;28;20105;-78
2023/08/12 00:53:19;;;;;;;7.65;7.03;;;17.00;99.90;;;;;;5189265;28;20053;-79
2023/08/12 00:55:52;;;;;;;8.45;7.75;;;16.90;99.90;;;;;;5189221;28;20755;-79
2023/08/12 00:58:27;;;;;;;7.95;7.22;;;16.90;99.90;;;;;;5187812;28;20053;-79
2023/08/12 01:01:01;;;;;;;7.35;6.68;;;16.80;99.90;;;;;;5192991;28;20029;-79
2023/08/12 01:03:33;;;;;;;8.05;5.75;;;16.60;99.90;;;;;;5191076;28;20071;-79
2023/08/12 01:06:07;;;;;;;6.63;5.70;;;16.70;99.90;;;;;;5189102;28;20033;-79
2023/08/12 01:08:47;;;;;;;6.75;5.15;;;16.60;99.90;;;;;;5187566;28;20489;-79
2023/08/12 01:11:47;;;;;;;7.63;6.28;;;16.60;99.90;;;;;;5188001;28;20030;-79
2023/08/12 01:14:54;;;;;;;6.55;6.03;;;16.70;99.90;;;;;;5188941;28;20026;-79
2023/08/12 01:17:29;;;;;;;6.80;6.25;;;16.60;99.90;;;;;;5187131;28;20136;-79
2023/08/12 01:20:12;;;;;;;6.85;6.25;;;16.70;99.90;;;;;;5187690;28;20462;-79
2023/08/12 01:22:46;;;;;;;7.68;6.88;;;16.60;99.90;;;;;;5187275;28;20085;-79
2023/08/12 01:25:30;;;;;;;9.10;7.25;;;16.50;99.90;;;;;;5188287;28;20377;-80
2023/08/12 01:28:04;;;;;;;7.85;7.15;;;16.70;99.90;;;;;;5187439;28;20535;-80
2023/08/12 01:31:10;;;;;;;7.82;6.90;;;16.50;99.90;;;;;;5187108;28;20041;-79
2023/08/12 01:34:32;;;;;;;8.30;6.75;;;16.30;99.90;;;;;;5188605;28;20105;-79
2023/08/12 01:37:12;;;;;;;7.93;6.43;;;16.30;99.90;;;;;;5136618;28;20573;-79
2023/08/12 01:39:55;;;;;;;;;;;16.40;99.90;;;;;;5180961;28;20493;-79
2023/08/12 01:42:30;;;;;;;6.93;6.40;;;16.30;99.90;;;;;;5187151;28;19959;-79
2023/08/12 01:45:08;;;;;;;7.10;6.30;;;16.30;99.90;;;;;;5188562;28;20068;-79
2023/08/12 01:47:46;;;;;;;8.73;6.65;;;16.40;99.90;;;;;;5207076;28;20053;-79
2023/08/12 01:50:21;;;;;;;7.28;6.65;;;16.30;99.90;;;;;;5195419;28;20037;-79
2023/08/12 01:52:55;;;;;;;9.05;6.70;;;16.40;99.90;;;;;;5205361;28;20512;-79
2023/08/12 01:55:32;;;;;;;7.10;6.53;;;16.40;99.90;;;;;;5197135;28;20405;-78
2023/08/12 01:58:05;;;;;;;7.03;6.35;;;16.20;99.90;;;;;;5199001;28;20022;-79
2023/08/12 02:00:39;;;;;;;6.90;6.40;;;16.20;99.90;;;;;;5194968;28;20032;-79
2023/08/12 02:03:16;;;;;;;12.02;6.63;;;16.10;99.90;;;;;;5208394;28;20100;-79
2023/08/12 02:05:50;;;;;;;7.38;6.70;;;15.90;99.90;;;;;;5191168;28;20032;-79
2023/08/12 02:08:24;;;;;;;9.15;6.57;;;16.00;99.90;;;;;;5208345;28;20049;-79
2023/08/12 02:11:01;;;;;;;7.90;7.20;;;16.00;99.90;;;;;;5208478;28;20037;-78
2023/08/12 02:13:35;;;;;;;8.00;7.20;;;15.90;99.90;;;;;;5199142;28;20116;-79
2023/08/12 02:16:16;;;;;;;8.43;7.82;;;16.00;99.90;;;;;;5201563;28;20130;-79
2023/08/12 02:18:50;;;;;;;7.88;7.10;;;16.10;99.90;;;;;;5190297;28;20095;-79
2023/08/12 02:21:25;;;;;;;8.27;7.28;;;16.00;99.90;;;;;;5206628;28;20029;-79
2023/08/12 02:24:06;;;;;;;7.13;6.25;;;16.20;99.90;;;;;;5187575;28;20018;-79
2023/08/12 02:26:44;;;;;;;7.40;6.80;;;16.10;99.90;;;;;;5202964;28;20023;-79
2023/08/12 02:29:24;;;;;;;7.90;7.28;;;16.10;99.90;;;;;;5207943;28;20021;-79
2023/08/12 02:31:57;;;;;;;;;;;16.10;99.90;;;;;;5196959;28;20721;-79
2023/08/12 02:34:34;;;;;;;6.13;5.53;;;16.10;99.90;;;;;;5205922;28;19936;-79
2023/08/12 02:37:12;;;;;;;6.63;5.93;;;16.20;99.90;;;;;;5189441;28;20037;-79
2023/08/12 02:39:52;;;;;;;10.48;6.05;;;16.20;99.90;;;;;;5207923;28;20088;-79
2023/08/12 02:42:26;;;;;;;6.22;5.72;;;16.30;99.90;;;;;;5207655;28;20021;-79
2023/08/12 02:45:04;;;;;;;6.18;5.57;;;16.30;99.90;;;;;;5212448;28;20024;-79
2023/08/12 02:47:37;;;;;;;7.32;5.70;;;16.30;99.90;;;;;;5215399;28;20037;-79
2023/08/12 02:50:17;;;;;;;7.07;5.22;;;16.30;99.90;;;;;;5196328;28;20025;-79
2023/08/12 02:52:49;;;;;;;7.40;5.95;;;16.40;99.90;;;;;;5205762;28;20442;-79
2023/08/12 02:55:23;;;;;;;5.68;5.00;;;16.30;99.90;;;;;;5207222;28;20068;-79
2023/08/12 02:58:05;;;;;;;7.60;5.80;;;16.30;99.90;;;;;;5206289;28;20026;-79
2023/08/12 03:00:45;;;;;;;6.03;5.53;;;16.40;99.90;;;;;;5207509;28;20061;-79
2023/08/12 03:03:19;;;;;;;6.03;5.55;;;16.20;99.90;;;;;;5205858;28;20091;-79
2023/08/12 03:06:00;;;;;;;7.53;5.75;;;16.30;99.90;;;;;;5209342;28;20029;-80
2023/08/12 03:08:34;;;;;;;7.30;5.85;;;16.40;99.90;;;;;;5195544;28;20025;-79
2023/08/12 03:11:13;;;;;;;5.80;5.40;;;16.30;99.90;;;;;;5205452;28;20064;-80
2023/08/12 03:13:50;;;;;;;7.40;6.70;;;16.40;99.90;;;;;;5205899;28;20873;-79
2023/08/12 03:16:30;;;;;;;6.10;5.60;;;16.40;99.90;;;;;;5207122;28;20029;-79
2023/08/12 03:19:03;;;;;;;6.00;5.55;;;16.20;99.90;;;;;;5189429;28;20503;-79
2023/08/12 03:21:38;;;;;;;8.73;5.78;;;16.20;99.90;;;;;;5207144;28;20363;-79
2023/08/12 03:24:16;;;;;;;7.50;5.95;;;16.10;99.90;;;;;;5202573;28;20018;-79
2023/08/12 03:26:50;;;;;;;6.43;5.82;;;16.30;99.90;;;;;;5205473;28;20728;-80
2023/08/12 03:29:24;;;;;;;6.57;5.90;;;16.20;99.90;;;;;;5189042;28;20393;-79
2023/08/12 03:31:59;;;;;;;7.35;5.43;;;16.30;99.90;;;;;;5168182;28;20030;-79
2023/08/12 03:34:36;;;;;;;9.43;6.18;;;16.30;99.90;;;;;;5189377;28;20026;-79
2023/08/12 03:37:13;;;;;;;6.85;6.25;;;16.30;99.90;;;;;;5227449;28;20476;-79
2023/08/12 03:39:47;;;;;;;7.90;5.82;;;16.10;99.90;;;;;;5218221;28;20485;-79
2023/08/12 03:42:24;;;;;;;6.63;6.03;;;16.20;99.90;;;;;;5206814;28;20051;-80
2023/08/12 03:44:58;;;;;;;8.02;7.18;;;16.10;99.90;;;;;;5191076;28;20038;-79
2023/08/12 03:47:32;;;;;;;6.65;5.97;;;16.20;99.90;;;;;;5205240;28;20481;-79
2023/08/12 03:50:07;;;;;;;6.55;5.95;;;16.30;99.90;;;;;;5205278;28;20104;-79
2023/08/12 03:52:44;;;;;;;7.07;6.38;;;16.30;99.90;;;;;;5204917;28;20029;-79
2023/08/12 03:55:18;;;;;;;6.47;5.78;;;16.30;99.90;;;;;;5200479;28;20120;-79
2023/08/12 03:57:52;;;;;;;6.82;6.20;;;16.30;99.90;;;;;;5188202;28;20025;-79
2023/08/12 04:00:29;;;;;;;7.05;6.50;;;16.20;99.90;;;;;;5188757;28;20029;-79
2023/08/12 04:03:03;;;;;;;6.57;5.97;;;16.30;99.90;;;;;;5188938;28;20029;-79
2023/08/12 04:05:34;;;;;;;7.82;7.03;;;16.20;99.90;;;;;;5188792;28;20061;-80
2023/08/12 04:08:08;;;;;;;7.20;6.70;;;16.40;99.90;;;;;;5188641;28;20045;-79
2023/08/12 04:10:52;;;;;;;8.00;7.20;;;16.40;99.90;;;;;;5188735;28;20030;-79
2023/08/12 04:13:25;;;;;;;7.53;6.70;;;16.60;99.90;;;;;;5206465;28;20021;-79
2023/08/12 04:15:58;;;;;;;7.88;7.07;;;16.60;99.90;;;;;;5213550;28;20037;-79
2023/08/12 04:18:32;;;;;;;9.38;7.10;;;16.80;99.90;;;;;;5206412;28;20064;-79
2023/08/12 04:21:06;;;;;;;7.00;6.30;;;16.90;99.90;;;;;;5203625;28;20477;-80
2023/08/12 04:23:40;;;;;;;6.10;5.50;;;17.10;99.90;;;;;;5206434;28;20087;-79
2023/08/12 04:26:13;;;;;;;6.20;5.68;;;17.20;99.90;;;;;;5206368;28;20105;-79
2023/08/12 04:28:48;;;;;;;6.00;5.35;;;17.10;99.90;;;;;;5209679;28;20020;-79
2023/08/12 04:31:19;;;;;;;5.53;5.03;;;17.40;99.90;;;;;;5205250;28;20363;-80
2023/08/12 04:33:52;;;;;;;5.90;5.40;;;17.40;99.90;;;;;;5188208;28;20041;-80
2023/08/12 04:36:31;;;;;;;5.80;5.13;;;17.50;99.90;;;;;;5187063;28;20029;-79
2023/08/12 04:39:10;;;;;;;6.43;5.78;;;17.60;99.90;;;;;;5188427;28;20049;-80
2023/08/12 04:41:44;;;;;;;5.97;5.35;;;17.70;99.90;;;;;;5206397;28;20100;-80
2023/08/12 04:44:18;;;;;;;6.72;5.20;;;17.90;99.90;;;;;;5192470;28;20040;-79
2023/08/12 04:46:52;;;;;;;5.90;5.30;;;17.90;99.90;;;;;;5205852;28;20409;-80
2023/08/12 04:49:27;;;;;;;6.25;5.25;;;17.90;99.90;;;;;;5206260;28;20029;-80
2023/08/12 04:52:01;;;;;;;5.40;4.90;;;17.90;99.90;;;;;;5206097;28;20021;-80
2023/08/12 04:54:38;;;;;;;5.30;4.85;;;18.00;99.90;;;;;;5185688;28;20036;-80
2023/08/12 04:57:12;;;;;;;5.60;5.10;;;18.20;99.90;;;;;;5193947;28;20025;-80
2023/08/12 04:59:57;;;;;;;6.57;4.68;;;18.10;99.90;;;;;;5205684;28;20026;-79
2023/08/12 05:02:31;;;;;;;5.90;4.85;;;18.30;99.90;;;;;;5209683;28;20053;-80
2023/08/12 05:05:05;;;;;;;10.10;4.65;;;18.20;99.90;;;;;;5209635;28;20100;-79
2023/08/12 05:07:39;;;;;;;6.60;4.95;;;18.50;99.90;;;;;;5209250;28;20026;-80
2023/08/12 05:10:13;;;;;;;4.90;4.53;;;18.60;99.90;;;;;;5209276;28;20092;-80
2023/08/12 05:12:48;;;;;;;6.20;5.03;;;19.00;99.90;;;;;;5209420;28;20026;-79
2023/08/12 05:15:22;;;;;;;6.03;5.10;;;18.90;99.90;;;;;;5200196;28;20120;-80
2023/08/12 05:17:56;;;;;;;6.18;4.60;;;19.10;99.90;;;;;;5207901;28;20030;-80
2023/08/12 05:20:30;;;;;;;6.93;5.22;;;19.30;99.90;;;;;;5207782;28;20025;-80
2023/08/12 05:23:04;;;;;;;6.10;5.60;;;19.40;99.90;;;;;;5190733;28;20026;-80
2023/08/12 05:25:39;;;;;;;6.38;5.90;;;19.60;99.90;;;;;;5207785;28;20029;-80
2023/08/12 05:28:17;;;;;;;5.95;5.43;;;19.70;99.90;;;;;;5209316;28;20025;-79
2023/08/12 05:30:48;;;;;;;6.47;5.88;;;19.90;99.90;;;;;;5209283;28;20052;-79
2023/08/12 05:33:19;;;;;;;8.07;7.38;;;20.10;99.90;;;;;;5209157;28;20025;-80
2023/08/12 05:35:50;;;;;;;10.95;6.82;;;20.30;99.90;;;;;;5191976;28;20042;-80
2023/08/12 05:38:21;;;;;;;8.18;6.38;;;20.50;99.90;;;;;;5209033;28;20029;-80
2023/08/12 05:40:52;;;;;;;9.07;6.47;;;20.80;99.90;;;;;;5208783;28;20389;-80
2023/08/12 05:43:22;;;;;;;8.20;7.50;;;21.00;99.90;;;;;;5205775;28;20025;-80
2023/08/12 05:45:53;;;;;;;11.40;5.97;;;21.30;99.90;;;;;;5196512;28;20057;-80
2023/08/12 05:48:24;;;;;;;9.10;6.53;;;21.80;99.90;;;;;;5207347;28;20617;-81
2023/08/12 05:50:55;;;;;;;9.25;6.10;;;22.20;99.90;;;;;;5207130;28;20036;-80
2023/08/12 05:53:26;;;;;;;8.05;5.90;;;22.40;99.90;;;;;;5181522;28;20449;-79
2023/08/12 05:55:57;;;;;;;7.40;6.03;;;22.40;99.90;;;;;;5189939;28;20485;-80
2023/08/12 05:58:28;;;;;;;9.77;6.80;;;22.70;99.90;;;;;;5208708;28;20025;-80
2023/08/12 06:00:59;;;;;;;9.80;6.32;;;23.00;99.90;;;;;;5199736;28;20032;-80
2023/08/12 06:03:29;;;;;;;7.50;5.32;;;23.20;99.90;;;;;;5203594;28;20021;-79
2023/08/12 06:06:00;;;;;;;7.18;5.65;;;23.30;99.90;;;;;;5208102;28;20521;-79
2023/08/12 06:08:31;;;;;;;9.45;5.43;;;23.40;99.90;;;;;;5207311;28;20026;-80
2023/08/12 06:11:02;;;;;;;8.93;4.93;;;23.60;99.90;;;;;;5207538;28;20036;-79
2023/08/12 06:13:33;;;;;;;6.28;4.90;;;23.80;99.90;;;;;;5202984;28;20083;-80
2023/08/12 06:16:04;;;;;;;7.47;5.13;;;23.80;99.90;;;;;;5208356;28;20033;-79
2023/08/12 06:18:35;;;;;;;10.43;5.25;;;23.80;99.90;;;;;;5207571;28;20026;-79
2023/08/12 06:21:08;;;;;;;7.85;4.78;;;23.90;99.90;;;;;;5190264;28;20389;-79
2023/08/12 06:23:40;;;;;;;8.02;4.65;;;24.00;99.90;;;;;;5207975;28;20017;-77
2023/08/12 06:26:11;;;;;;;8.20;4.75;;;24.00;99.90;;;;;;5205766;28;20029;-79
2023/08/12 06:28:43;;;;;;;10.77;4.97;;;24.20;99.90;;;;;;5211983;28;20063;-79
2023/08/12 06:31:15;;;;;;;5.18;4.65;;;24.30;99.90;;;;;;5207826;28;20076;-76
2023/08/12 06:33:46;;;;;;;6.63;5.07;;;24.30;99.90;;;;;;5208050;28;20048;-76
2023/08/12 06:36:16;;;;;;;5.63;4.90;;;24.20;99.90;;;;;;5203351;28;20073;-77
2023/08/12 06:38:47;;;;;;;7.85;5.15;;;24.30;99.90;;;;;;5189415;28;20883;-79
2023/08/12 06:41:20;;;;;;;6.65;5.07;;;24.30;99.90;;;;;;5207672;28;20416;-78
2023/08/12 06:43:51;;;;;;;5.68;4.95;;;24.30;99.90;;;;;;5196146;28;20377;-78
2023/08/12 06:46:22;;;;;;;8.40;5.07;;;24.20;99.90;;;;;;5207492;28;20053;-78
2023/08/12 06:48:55;;;;;;;11.05;4.78;;;24.60;99.90;;;;;;5207666;28;20076;-79
2023/08/12 06:51:32;;;;;;;5.72;4.88;;;24.60;99.90;;;;;;5207511;28;20067;-78
2023/08/12 06:54:06;;;;;;;6.90;4.65;;;24.60;99.90;;;;;;5204647;28;20048;-77
2023/08/12 06:56:37;;;;;;;6.68;4.88;;;24.70;99.90;;;;;;5207513;28;20051;-78
2023/08/12 06:59:08;;;;;;;9.23;5.25;;;24.50;99.90;;;;;;5197396;28;20026;-79
2023/08/12 07:01:39;;;;;;;8.45;5.05;;;24.90;99.90;;;;;;5207131;28;20034;-78
2023/08/12 07:04:10;;;;;;;6.55;5.07;;;25.00;99.90;;;;;;5205407;28;20029;-77
2023/08/12 07:06:41;;;;;;;10.52;5.28;;;25.20;99.90;;;;;;5199545;28;20511;-77
2023/08/12 07:09:12;;;;;;;6.78;5.50;;;25.30;99.90;;;;;;5206992;28;20029;-78
2023/08/12 07:11:43;;;;;;;6.25;5.65;;;25.30;99.90;;;;;;5206789;28;20022;-79
2023/08/12 07:14:14;;;;;;;9.30;5.57;;;25.30;99.90;;;;;;5206841;28;20030;-79
2023/08/12 07:16:46;;;;;;;7.15;5.63;;;25.50;99.90;;;;;;5207024;28;20140;-79
2023/08/12 07:19:18;;;;;;;6.97;4.88;;;25.50;99.90;;;;;;5206525;28;20060;-78
2023/08/12 07:21:54;;;;;;;6.35;5.18;;;25.60;99.90;;;;;;5206151;28;20033;-79
2023/08/12 07:24:27;;;;;;;9.13;5.30;;;25.70;99.90;;;;;;5207116;28;20033;-79
2023/08/12 07:26:58;;;;;;;9.20;4.80;;;25.70;99.90;;;;;;5189131;28;20099;-79
2023/08/12 07:29:29;;;;;;;9.45;6.45;;;25.80;99.90;;;;;;5206980;28;20026;-77
2023/08/12 07:32:02;;;;;;;7.93;5.88;;;25.90;99.90;;;;;;5206897;28;20684;-77
2023/08/12 07:34:33;;;;;;;8.93;6.03;;;25.90;99.90;;;;;;5188247;28;20036;-77
2023/08/12 07:37:04;;;;;;;6.80;5.28;;;26.00;99.90;;;;;;5207180;28;20033;-77
2023/08/12 07:39:35;;;;;;;6.75;4.95;;;26.00;99.90;;;;;;5207179;28;20084;-79
2023/08/12 07:42:06;;;;;;;8.23;5.13;;;26.30;99.90;;;;;;5207163;28;20071;-77
2023/08/12 07:44:37;;;;;;;9.68;6.15;;;;;;;;;;5189102;28;20654;-78
2023/08/12 07:47:09;;;;;;;7.28;5.63;;;26.20;99.90;;;;;;5206942;28;20076;-82
2023/08/12 07:49:39;;;;;;;8.55;5.63;;;26.30;99.90;;;;;;5207179;28;20028;-77
2023/08/12 07:52:10;;;;;;;11.65;5.05;;;26.30;99.90;;;;;;5207031;28;20060;-81
2023/08/12 07:54:41;;;;;;;7.28;4.78;;;;;;;;;;5206660;28;20053;-77
2023/08/12 07:57:12;;;;;;;9.95;5.30;;;26.40;99.90;;;;;;5207043;28;20029;-76
2023/08/12 07:59:43;;;;;;;8.05;5.60;;;26.40;99.90;;;;;;5206760;28;20017;-78
2023/08/12 08:02:15;;;;;;;7.93;5.00;;;;;;;;;;5206800;28;20108;-77
2023/08/12 08:04:48;;;;;;;8.20;5.55;;;26.60;99.90;;;;;;5189248;28;20112;-82
2023/08/12 08:07:20;;;;;;;8.90;5.65;;;;;;;;;;5206560;28;20022;-78
2023/08/12 08:09:52;;;;;;;10.60;6.32;;;;;;;;;;5189346;28;20026;-77
2023/08/12 08:12:23;;;;;;;7.88;6.30;;;;;;;;;;5206917;28;20028;-77
2023/08/12 08:14:54;;;;;;;7.90;6.35;;;;;;;;;;5206589;28;20041;-77
2023/08/12 08:17:25;;;;;;;7.28;6.43;;;;;;;;;;5206559;28;20188;-77
2023/08/12 08:19:57;;;;;;;9.52;7.15;;;;;;;;;;5206815;28;20029;-78
2023/08/12 08:22:28;;;;;;;11.63;7.18;;;;;;;;;;5189210;28;20084;-81
2023/08/12 08:24:59;;;;;;;8.52;7.25;;;;;;;;;;5206653;28;20534;-77
2023/08/12 08:27:31;;;;;;;9.35;7.57;;;;;;;;;;5188855;28;20021;-77
2023/08/12 08:30:03;;;;;;;9.80;6.72;;;;;;;;;;5188548;28;20049;-77
2023/08/12 08:32:34;;;;;;;9.60;7.25;;;;;;;;;;5206423;28;20021;-77
2023/08/12 08:35:06;;;;;;;11.50;7.38;;;;;;;;;;5191903;28;20128;-77
2023/08/12 08:37:37;;;;;;;8.65;7.65;;;;;;;;;;5210465;28;20025;-77
2023/08/12 08:40:08;;;;;;;7.85;6.07;;;;;;;;;;5192426;28;20029;-77
2023/08/12 08:42:40;;;;;;;10.77;6.65;;;;;;;;;;5210301;28;20025;-78
2023/08/12 08:45:13;;;;;;;9.52;6.25;;;;;;;;;;5209969;28;20036;-77
2023/08/12 08:47:45;;;;;;;13.73;6.75;;;;;;;;;;5210568;28;20112;-77
2023/08/12 08:50:18;;;;;;;8.57;6.05;;;;;;;;;;5210075;28;20029;-77
2023/08/12 08:52:50;;;;;;;9.77;6.80;;;;;;;;;;5210277;28;20076;-77
2023/08/12 08:55:22;;;;;;;9.43;6.85;;;27.50;99.90;;;;;;5209921;28;20025;-77
2023/08/12 08:57:53;;;;;;;9.85;6.88;;;27.60;99.90;;;;;;5210089;28;20783;-77
2023/08/12 09:00:25;;;;;;;8.15;5.75;;;27.70;99.90;;;;;;5210015;28;20028;-77
2023/08/12 09:02:58;;;;;;;9.40;5.72;;;27.70;99.90;;;;;;5192062;28;20025;-77
2023/08/12 09:05:30;;;;;;;7.95;6.65;;;27.30;99.90;;;;;;5210396;28;20401;-80
2023/08/12 09:08:06;;;;;;;10.32;6.28;;;27.50;99.90;;;;;;5209612;28;20454;-84
2023/08/12 09:10:40;;;;;;;9.82;5.95;;;27.70;99.90;;;;;;5209965;28;20025;-76
2023/08/12 09:13:11;;;;;;;7.22;6.28;;;27.70;99.90;;;;;;5191984;28;20116;-77
2023/08/12 09:15:42;;;;;;;10.55;6.38;;;27.60;99.90;;;;;;5191604;28;20129;-81
2023/08/12 09:18:12;;;;;;;10.75;5.78;;;27.80;99.90;;;;;;5209886;28;20057;-77
2023/08/12 09:20:44;;;;;;;10.30;5.85;;;27.70;99.90;;;;;;5209541;28;20030;-77
2023/08/12 09:23:15;;;;;;;11.85;5.88;;;27.80;99.90;;;;;;5209806;28;20550;-77
2023/08/12 09:25:46;;;;;;;7.93;5.75;;;27.70;99.90;;;;;;5191390;28;20042;-77
2023/08/12 09:28:16;;;;;;;11.15;6.15;;;28.00;99.90;;;;;;5209204;28;20093;-77
2023/08/12 09:30:52;;;;;;;11.82;5.50;;;28.10;99.90;;;;;;5191623;28;20524;-77
2023/08/12 09:33:26;;;;;;;6.47;5.13;;;28.30;99.90;;;;;;5208950;28;20025;-77
2023/08/12 09:35:57;;;;;;;10.15;6.00;;;27.90;99.90;;;;;;5208699;28;20370;-76
2023/08/12 09:38:28;;;;;;;11.90;5.97;;;27.40;99.90;;;;;;5208782;28;20054;-84
2023/08/12 09:40:59;;;;;;;11.65;6.22;;;;;;;;;;5207903;28;20381;-77
2023/08/12 09:43:30;;;;;;;7.85;6.10;;;;;;;;;;5209031;28;20060;-76
2023/08/12 09:46:03;;;;;;;10.68;6.30;;;27.70;99.90;;;;;;5190557;28;20045;-76
2023/08/12 09:48:33;;;;;;;12.70;6.30;;;27.90;99.90;;;;;;5191121;28;20427;-77
2023/08/12 09:51:05;;;;;;;9.85;6.10;;;27.70;99.90;;;;;;5208876;28;20096;-76
2023/08/12 09:53:36;;;;;;;6.63;5.88;;;27.70;99.90;;;;;;5209025;28;20064;-77
2023/08/12 09:56:11;;;;;;;10.23;5.70;;;27.70;99.90;;;;;;5208909;28;20359;-77
2023/08/12 09:58:43;;;;;;;6.93;5.43;;;27.60;99.90;;;;;;5190983;28;20076;-77
2023/08/12 10:01:22;;;;;;;9.10;5.85;;;27.70;99.90;;;;;;5190596;28;20022;-77
2023/08/12 10:03:53;;;;;;;;;;;27.70;99.90;;;;;;5209166;28;20104;-79
2023/08/12 10:06:24;;;;;;;12.90;6.35;;;27.70;99.90;;;;;;5190851;28;20067;-76
2023/08/12 10:08:57;;;;;;;9.88;5.95;;;27.70;99.90;;;;;;5190843;28;20116;-77
2023/08/12 10:11:28;;;;;;;9.80;5.47;;;27.60;99.90;;;;;;5208480;28;20470;-77
2023/08/12 10:14:00;;;;;;;9.68;5.80;;;27.70;99.90;;;;;;5190727;28;20116;-77
2023/08/12 10:16:32;;;;;;;8.95;5.53;;;27.90;99.90;;;;;;5208124;28;20068;-77
2023/08/12 10:19:05;;;;;;;15.38;5.75;;;27.90;99.90;;;;;;5208577;28;20048;-77
2023/08/12 10:21:37;;;;;;;10.13;5.75;;;28.00;99.90;;;;;;5190372;28;20033;-77
2023/08/12 10:24:10;;;;;;;10.93;6.35;;;28.00;99.90;;;;;;5207573;28;20026;-77
2023/08/12 10:26:42;;;;;;;11.82;5.68;;;28.10;99.90;;;;;;5189992;28;20033;-78
2023/08/12 10:29:13;;;;;;;12.90;5.88;;;28.10;99.90;;;;;;5207522;28;20792;-77
2023/08/12 10:31:45;;;;;;;8.32;5.65;;;28.20;99.90;;;;;;5207661;28;20481;-76
2023/08/12 10:34:24;;;;;;;11.48;5.78;;;28.30;99.90;;;;;;5207316;28;20152;-77
2023/08/12 10:36:56;;;;;;;11.90;5.63;;;28.10;99.90;;;;;;5207866;28;20176;-77
2023/08/12 10:39:31;;;;;;;10.48;5.57;;;28.20;99.90;;;;;;5208091;28;20032;-77
2023/08/12 10:42:02;;;;;;;11.07;5.75;;;28.20;99.90;;;;;;5207762;28;20104;-77
2023/08/12 10:44:50;;;;;;;10.63;5.70;;;28.20;99.90;;;;;;5207809;28;20100;-76
2023/08/12 10:47:21;;;;;;;9.98;6.30;;;28.20;99.90;;;;;;5207765;28;20045;-77
2023/08/12 10:49:53;;;;;;;9.73;5.78;;;28.00;99.90;;;;;;5207402;28;20034;-76
2023/08/12 10:52:30;;;;;;;10.75;6.00;;;28.10;99.90;;;;;;5207453;28;20021;-78
2023/08/12 10:55:25;;;;;;;7.70;5.25;;;28.10;99.90;;;;;;5207016;28;20072;-77
2023/08/12 10:57:58;;;;;;;10.85;5.32;;;28.20;99.90;;;;;;5178883;28;20049;-77
2023/08/12 11:00:29;;;;;;;8.63;5.65;;;28.20;99.90;;;;;;5206994;28;20021;-77
2023/08/12 11:03:05;;;;;;;13.93;5.80;;;28.00;99.90;;;;;;5206615;28;20040;-77
2023/08/12 11:05:38;;;;;;;9.27;5.85;;;28.30;99.90;;;;;;5189028;28;20029;-77
2023/08/12 11:08:09;;;;;;;13.10;5.45;;;28.30;99.90;;;;;;5189321;28;20108;-77
2023/08/12 11:10:40;;;;;;;10.27;5.75;;;28.20;99.90;;;;;;5207416;28;20116;-77
2023/08/12 11:13:11;;;;;;;13.77;6.38;;;28.20;99.90;;;;;;5189547;28;20021;-76
2023/08/12 11:15:46;;;;;;;12.27;6.70;;;28.10;99.90;;;;;;5207261;28;20078;-76
2023/08/12 11:18:18;;;;;;;10.95;6.65;;;27.90;99.90;;;;;;5207274;28;20030;-81
2023/08/12 11:20:50;;;;;;;10.57;6.22;;;27.90;99.90;;;;;;5207188;28;20057;-78
2023/08/12 11:23:21;;;;;;;8.57;6.53;;;28.10;99.90;;;;;;5207076;28;20082;-77
2023/08/12 11:25:52;;;;;;;13.32;7.30;;;28.00;99.90;;;;;;5189252;28;20044;-79
2023/08/12 11:31:04;;;;;;;12.98;6.65;;;28.10;99.90;;;;;;5312657;23;20059;-77
2023/08/12 11:33:35;;;;;;;9.38;6.05;;;28.10;99.90;;;;;;5128366;28;20034;-76
2023/08/12 11:36:06;;;;;;;11.80;6.35;;;28.00;99.90;;;;;;5128466;28;20047;-76
2023/08/12 11:38:38;;;;;;;8.93;5.95;;;27.80;99.90;;;;;;5146041;28;20022;-76
2023/08/12 11:41:09;;;;;;;12.18;6.15;;;28.00;99.90;;;;;;5145804;28;20094;-76
2023/08/12 11:43:39;;;;;;;8.02;6.57;;;28.10;99.90;;;;;;5128710;28;20030;-76
2023/08/12 11:46:10;;;;;;;11.00;6.50;;;28.10;99.90;;;;;;5128221;28;20395;-76
2023/08/12 11:48:43;;;;;;;13.93;6.88;;;28.30;99.90;;;;;;5145901;28;20027;-78
2023/08/12 11:51:14;;;;;;;10.82;6.63;;;28.00;99.90;;;;;;5145155;28;20093;-77
2023/08/12 11:53:45;;;;;;;13.20;7.07;;;27.90;99.90;;;;;;5145229;28;20034;-76
2023/08/12 11:56:17;;;;;;;14.75;8.88;;;27.80;99.90;;;;;;5143990;28;20038;-77
2023/08/12 11:58:54;;;;;;;13.48;7.22;;;28.20;99.90;;;;;;5145977;28;20030;-77
2023/08/12 12:01:25;;;;;;;10.50;7.47;;;28.00;99.90;;;;;;5165336;28;20015;-77
2023/08/12 12:03:55;;;;;;;10.38;6.90;;;27.80;99.90;;;;;;5165497;28;20030;-76
2023/08/12 12:06:36;;;;;;;11.90;7.65;;;28.00;99.90;;;;;;5148345;28;20034;-76
2023/08/12 12:09:12;;;;;;;11.20;8.80;;;28.00;99.90;;;;;;5169209;28;20027;-85
2023/08/12 12:11:43;;;;;;;14.27;7.50;;;28.10;99.90;;;;;;5152610;28;20026;-82
2023/08/12 12:14:14;;;;;;;16.58;8.00;;;28.30;99.90;;;;;;5152613;28;20108;-77
2023/08/12 12:16:47;;;;;;;16.95;7.47;;;28.20;99.90;;;;;;5169684;28;20431;-76
2023/08/12 12:19:22;;;;;;;9.15;6.88;;;28.10;99.90;;;;;;5152390;28;20157;-77
2023/08/12 12:21:53;;;;;;;14.63;6.95;;;28.00;99.90;;;;;;5169945;28;20027;-76
2023/08/12 12:24:30;;;;;;;11.15;6.78;;;28.30;99.90;;;;;;5169474;28;20093;-76
2023/08/12 12:27:01;;;;;;;12.23;7.18;;;28.00;99.90;;;;;;5169600;28;20026;-76
2023/08/12 12:29:32;;;;;;;9.85;7.00;;;28.10;99.90;;;;;;5169171;28;20069;-76
2023/08/12 12:32:03;;;;;;;11.55;6.38;;;28.30;99.90;;;;;;5169333;28;20045;-76
2023/08/12 12:34:33;;;;;;;11.80;6.53;;;28.20;99.90;;;;;;5169411;28;20034;-76
2023/08/12 12:37:04;;;;;;;12.23;6.30;;;28.50;99.90;;;;;;5151611;28;20034;-76
2023/08/12 12:39:35;;;;;;;9.75;6.75;;;28.30;99.90;;;;;;5151799;28;20022;-76
2023/08/12 12:42:06;;;;;;;11.23;7.43;;;28.20;99.90;;;;;;5168418;28;20030;-77
2023/08/12 12:44:37;;;;;;;9.43;6.13;;;28.20;99.90;;;;;;5168754;28;20034;-84
2023/08/12 12:47:10;;;;;;;13.30;6.45;;;28.20;99.90;;;;;;5169014;28;20026;-76
2023/08/12 12:49:43;;;;;;;8.82;6.28;;;28.40;99.90;;;;;;5151197;28;20034;-76
2023/08/12 12:52:14;;;;;;;7.63;6.93;;;28.20;99.90;;;;;;5151253;28;20081;-76
2023/08/12 12:54:45;;;;;;;11.07;6.97;;;27.90;99.90;;;;;;5151353;28;20117;-79
2023/08/12 12:57:16;;;;;;;12.80;7.13;;;27.70;99.90;;;;;;5151594;28;20035;-86
2023/08/12 12:59:47;;;;;;;10.02;7.43;;;27.70;99.90;;;;;;5169199;28;20041;-76
2023/08/12 13:02:18;;;;;;;10.50;6.95;;;27.80;99.90;;;;;;5169127;28;20030;-76
2023/08/12 13:04:49;;;;;;;11.32;8.00;;;27.70;99.90;;;;;;5169194;28;20880;-76
2023/08/12 13:07:20;;;;;;;14.45;10.60;;;27.50;99.90;;;;;;5169038;28;20472;-85
2023/08/12 13:09:51;;;;;;;12.35;11.40;;;27.60;99.90;;;;;;5168741;28;20046;-86
2023/08/12 13:12:22;;;;;;;12.38;11.18;;;27.80;99.90;;;;;;5168890;28;20041;-76
2023/08/12 13:14:53;;;;;;;13.50;11.63;;;27.60;99.90;;;;;;5168683;28;20569;-79
2023/08/12 13:17:24;;;;;;;16.60;13.32;;;27.40;99.90;;;;;;5168498;28;20042;-77
2023/08/12 13:19:55;;;;;;;21.23;14.85;;;27.60;99.90;;;;;;5167900;28;20029;-78
2023/08/12 13:22:26;;;;;;;14.02;12.57;;;27.40;99.90;;;;;;5168641;28;20109;-76
2023/08/12 13:24:57;;;;;;;20.42;15.10;;;27.20;99.90;;;;;;5168298;28;20026;-85
2023/08/12 13:27:28;;;;;;;15.82;13.25;;;27.30;99.90;;;;;;5168644;28;20142;-76
2023/08/12 13:29:58;;;;;;;16.42;14.85;;;27.40;99.90;;;;;;5168040;28;20038;-76